ニューヨーク/JFK の空港の天気 - METARとTAF

ジョン・F・ケネディ国際空港 ( KJFK / JFK ) - アメリカ ニューヨーク州ニューヨーク
飛行場実況気象(Metar)
観測時間02/21 12:51 EST (02/21 17:51 UTC)
風向・風速西 8m/s
視程10km以上
天気現象
少しの雲 雲底高度 730m
全天の8割程度の雲 雲底高度 9140m
気温8.3℃
湿度71%
気圧1014.5hPa
METARKJFK 211751Z 26015KT 10SM FEW024 BKN300 08/03 A2996 RMK AO2 SLP145 T00830033 10083 20011 58001
過去の天気等 Google飛行場航空写真 Wunderground天気予報

過去48時間のMETAR

飛行場予報(TAF)
発表時間: 2/21 12:27 EST (2/21 17:27 UTC)
予報対象時間: 21日13時 EST ~ 22日19時 EST
風向・風速西 8m/s 瞬間風速 11m/s
視程10km以上
少しの雲 雲底高度 370m
全天の8割程度の雲 雲底高度 9750m
21日19時 EST から
風向・風速西 5m/s
視程10km以上
全天の4割程度の雲 雲底高度 7620m
22日1時 EST から
風向・風速北西 5m/s
視程10km以上
全天の4割程度の雲 雲底高度 7620m
22日7時 EST から
風向・風速北西 5m/s
視程10km以上
全天の4割程度の雲 雲底高度 7620m
KJFK 211727Z 2118/2224 26015G22KT P6SM FEW012 BKN320
FM220000 28010KT P6SM SCT250
FM220600 31010KT P6SM SCT250
FM221200 32009KT P6SM SCT250